Almont, Michigan
Current Conditions -  °F | °C
As of 3:53 PM on Tuesday 27 Jan 2015 (Local Time) from KD95 Reporting Station
Clear Clear  
Wind Chill: 14°   Ceiling: Unl
Heat Index: 23°   Visibility: 10mi
Dew Point: 10°   Wind: 9mph
Humidity: 58%   Direction: 20°NNE
Pressure: 30.13"   Gusts: NA
Location:  42.92°N, 83.04°W
Report Text: KD95 272053Z AUTO 02008KT 10SM CLR M05/M12 A3013 RMK AO2 T10481120
Loading
Personal Weather Stations






























Interactive Weather Map New forecast layout! Learn more

10-Day Weather Forecast

Advertisements
Track Severe Weather on mobile